Palopinto, Missouri
Current Conditions -  °F | °C
As of 6:15 PM on Wednesday 26 Nov 2014 (Local Time) from KGLY Reporting Station
Overcast Overcast  
Wind Chill: 27°   Ceiling: 1900
Heat Index: 37°   Visibility: 10mi
Dew Point: 30°   Wind: 22mph
Humidity: 75%   Direction: 300°WNW
Pressure: 30.18"   Gusts: 26mph
Location:  38.4371°N, 93.4072°W
Report Text: KGLY 270015Z AUTO 30019G23KT 10SM OVC019 03/M01 A3018 RMK AO2
Loading
Personal Weather Stations






























Interactive Weather Map New forecast layout! Learn more

10-Day Weather Forecast

Advertisements
Track Severe Weather on mobile